createdAt,value
2023-01-25T00:02:13.193Z,2.76
2023-01-25T00:04:39.673Z,2.67
2023-01-25T00:07:08.396Z,2.65
2023-01-25T00:09:35.011Z,2.67
2023-01-25T00:12:04.037Z,2.61
2023-01-25T00:14:30.544Z,2.73
2023-01-25T00:16:57.024Z,2.65
2023-01-25T00:19:24.008Z,2.63
2023-01-25T00:21:50.458Z,2.59
2023-01-25T00:24:17.021Z,2.61
2023-01-25T00:26:46.404Z,2.56
2023-01-25T00:29:14.407Z,2.64
2023-01-25T00:31:58.830Z,2.66
2023-01-25T00:34:25.374Z,2.71
2023-01-25T00:36:55.281Z,2.72
2023-01-25T00:39:21.748Z,2.74
2023-01-25T00:41:48.294Z,2.67
2023-01-25T00:44:14.953Z,2.67
2023-01-25T00:46:43.690Z,2.67
2023-01-25T00:49:27.622Z,2.67
2023-01-25T00:51:55.401Z,2.59
2023-01-25T00:54:22.933Z,2.58
2023-01-25T00:56:49.918Z,2.65
2023-01-25T00:59:16.353Z,2.66
2023-01-25T01:01:45.839Z,2.59
2023-01-25T01:04:12.324Z,2.51
2023-01-25T01:06:42.291Z,2.52
2023-01-25T01:09:14.079Z,2.63
2023-01-25T01:11:40.665Z,2.56
2023-01-25T01:14:07.369Z,2.54
2023-01-25T01:16:34.930Z,2.47
2023-01-25T01:19:01.435Z,2.45
2023-01-25T01:21:28.222Z,2.47
2023-01-25T01:23:57.785Z,2.51
2023-01-25T01:26:24.488Z,2.50
2023-01-25T01:28:50.906Z,2.56
2023-01-25T01:31:20.856Z,2.51
2023-01-25T01:33:52.128Z,2.52
2023-01-25T01:36:20.945Z,2.59
2023-01-25T01:38:47.451Z,2.60
2023-01-25T01:41:15.645Z,2.44
2023-01-25T01:43:43.003Z,2.40
2023-01-25T01:46:34.414Z,2.44
2023-01-25T01:49:14.282Z,2.44
2023-01-25T01:51:47.383Z,2.46
2023-01-25T01:54:16.868Z,2.43
2023-01-25T01:57:00.263Z,2.39
2023-01-25T01:59:34.701Z,2.35
2023-01-25T02:02:01.242Z,2.40
2023-01-25T02:04:28.480Z,2.42
2023-01-25T02:07:02.600Z,2.42
2023-01-25T02:09:31.569Z,2.46
2023-01-25T02:11:59.798Z,2.44
2023-01-25T02:14:31.488Z,2.49
2023-01-25T02:16:58.481Z,2.47
2023-01-25T02:19:44.171Z,2.47
2023-01-25T02:22:16.503Z,2.48
2023-01-25T02:24:50.820Z,2.50
2023-01-25T02:27:17.970Z,2.44
2023-01-25T02:29:47.385Z,2.36
2023-01-25T02:32:14.295Z,2.35
2023-01-25T02:34:40.777Z,2.37
2023-01-25T02:37:12.514Z,2.46
2023-01-25T02:39:38.961Z,2.35
2023-01-25T02:42:05.516Z,2.39
2023-01-25T02:44:35.021Z,2.41
2023-01-25T02:47:01.487Z,2.45
2023-01-25T02:49:28.002Z,2.45
2023-01-25T02:51:58.397Z,2.43
2023-01-25T02:54:26.749Z,2.45
2023-01-25T02:56:53.490Z,2.37
2023-01-25T02:59:20.004Z,2.41
2023-01-25T03:01:47.056Z,2.33
2023-01-25T03:04:13.645Z,2.42
2023-01-25T03:06:42.641Z,2.38
2023-01-25T03:09:10.592Z,2.45
2023-01-25T03:11:37.354Z,2.45
2023-01-25T03:14:03.882Z,2.35
2023-01-25T03:16:34.228Z,2.39
2023-01-25T03:19:02.978Z,2.31
2023-01-25T03:21:29.513Z,2.37
2023-01-25T03:23:59.156Z,2.42
2023-01-25T03:26:26.786Z,2.43
2023-01-25T03:28:55.804Z,2.40
2023-01-25T03:31:22.627Z,2.40
2023-01-25T03:33:49.814Z,2.38
2023-01-25T03:36:16.462Z,2.40
2023-01-25T03:38:43.160Z,2.34
2023-01-25T03:41:09.605Z,2.23
2023-01-25T03:43:36.020Z,2.27
2023-01-25T03:46:02.548Z,2.25
2023-01-25T03:48:29.468Z,2.25
2023-01-25T03:50:59.216Z,2.19
2023-01-25T03:53:30.773Z,2.21
2023-01-25T03:56:01.806Z,2.22
2023-01-25T03:58:30.876Z,2.27
2023-01-25T04:00:59.945Z,2.26
2023-01-25T04:03:27.239Z,2.33
2023-01-25T04:05:56.089Z,2.27
2023-01-25T04:08:23.167Z,2.25
2023-01-25T04:10:57.683Z,2.25
2023-01-25T04:13:25.225Z,2.30
2023-01-25T04:15:51.809Z,2.30
2023-01-25T04:18:19.093Z,2.23
2023-01-25T04:20:46.052Z,2.25
2023-01-25T04:23:12.870Z,2.34
2023-01-25T04:25:39.619Z,2.25
2023-01-25T04:28:06.133Z,2.26
2023-01-25T04:30:33.754Z,2.20
2023-01-25T04:33:04.799Z,2.24
2023-01-25T04:35:33.624Z,2.23
2023-01-25T04:38:00.509Z,2.23
2023-01-25T04:40:27.748Z,2.32
2023-01-25T04:42:54.454Z,2.34
2023-01-25T04:45:23.704Z,2.26
2023-01-25T04:47:50.585Z,2.18
2023-01-25T04:50:17.112Z,2.24
2023-01-25T04:52:43.550Z,2.31
2023-01-25T04:55:14.773Z,2.30
2023-01-25T04:57:41.311Z,2.18
2023-01-25T05:00:08.810Z,2.32
2023-01-25T05:02:35.397Z,2.40
2023-01-25T05:05:02.554Z,2.25
2023-01-25T05:07:29.091Z,2.17
2023-01-25T05:09:55.573Z,2.18
2023-01-25T05:12:24.300Z,2.32
2023-01-25T05:14:50.750Z,2.24
2023-01-25T05:17:17.256Z,2.21
2023-01-25T05:19:43.723Z,2.11
2023-01-25T05:22:15.221Z,2.12
2023-01-25T05:24:41.939Z,2.04
2023-01-25T05:27:09.712Z,1.95
2023-01-25T05:29:38.009Z,2.05
2023-01-25T05:32:07.453Z,2.05
2023-01-25T05:34:35.032Z,2.00
2023-01-25T05:37:02.770Z,2.11
2023-01-25T05:39:29.515Z,2.07
2023-01-25T05:41:56.079Z,2.19
2023-01-25T05:44:23.106Z,2.19
2023-01-25T05:46:50.302Z,2.18
2023-01-25T05:49:18.064Z,2.12
2023-01-25T05:51:45.510Z,2.04
2023-01-25T05:54:14.897Z,2.07
2023-01-25T05:56:41.516Z,2.12
2023-01-25T05:59:07.960Z,2.14
2023-01-25T06:01:34.377Z,2.20
2023-01-25T06:04:01.412Z,2.15
2023-01-25T06:06:28.264Z,2.13
2023-01-25T06:08:54.695Z,2.11
2023-01-25T06:11:23.966Z,2.15
2023-01-25T06:13:51.335Z,2.16
2023-01-25T06:16:18.873Z,2.21
2023-01-25T06:18:45.514Z,2.15
2023-01-25T06:21:12.264Z,2.11
2023-01-25T06:23:38.743Z,2.01
2023-01-25T06:26:08.003Z,2.06
2023-01-25T06:28:38.811Z,2.09
2023-01-25T06:31:18.602Z,2.01
2023-01-25T06:33:49.553Z,2.07
2023-01-25T06:36:18.619Z,2.10
2023-01-25T06:38:50.737Z,2.15
2023-01-25T06:41:18.374Z,2.19
2023-01-25T06:43:45.538Z,2.17
2023-01-25T06:46:12.663Z,2.13
2023-01-25T06:48:40.173Z,2.17
2023-01-25T06:51:08.964Z,2.04
2023-01-25T06:53:38.473Z,2.09
2023-01-25T06:56:10.684Z,2.01
2023-01-25T06:58:37.807Z,2.08
2023-01-25T07:01:07.610Z,2.12
2023-01-25T07:03:36.949Z,2.15
2023-01-25T07:06:06.288Z,2.11
2023-01-25T07:08:33.838Z,2.14
2023-01-25T07:11:03.312Z,2.07
2023-01-25T07:13:31.061Z,2.03
2023-01-25T07:16:00.149Z,2.10
2023-01-25T07:18:28.005Z,2.02
2023-01-25T07:20:54.471Z,1.97
2023-01-25T07:23:21.006Z,2.01
2023-01-25T07:25:49.333Z,1.95
2023-01-25T07:28:16.944Z,2.11
2023-01-25T07:30:46.267Z,2.15
2023-01-25T07:33:12.787Z,2.06
2023-01-25T07:35:39.336Z,2.09
2023-01-25T07:38:05.984Z,2.13
2023-01-25T07:40:32.476Z,2.04
2023-01-25T07:42:59.021Z,2.01
2023-01-25T07:45:30.195Z,2.02
2023-01-25T07:47:58.870Z,2.00
2023-01-25T07:50:27.001Z,2.14
2023-01-25T07:52:54.246Z,2.00
2023-01-25T07:55:21.849Z,2.21
2023-01-25T07:57:48.459Z,2.19
2023-01-25T08:00:15.183Z,2.05
2023-01-25T08:02:41.740Z,2.19
2023-01-25T08:05:08.965Z,2.01
2023-01-25T08:07:35.647Z,1.94
2023-01-25T08:10:02.149Z,2.01
2023-01-25T08:12:28.800Z,1.98
2023-01-25T08:14:55.362Z,2.15
2023-01-25T08:17:22.084Z,2.20
2023-01-25T08:19:48.608Z,2.12
2023-01-25T08:22:15.094Z,2.05
2023-01-25T08:24:41.569Z,2.03
2023-01-25T08:27:08.003Z,2.12
2023-01-25T08:29:34.700Z,2.13
2023-01-25T08:32:04.352Z,2.28
2023-01-25T08:34:32.355Z,2.22
2023-01-25T08:36:58.926Z,2.28
2023-01-25T08:39:25.827Z,2.29
2023-01-25T08:41:52.467Z,2.40
2023-01-25T08:44:24.021Z,2.39
2023-01-25T08:46:50.572Z,2.36
2023-01-25T08:49:17.085Z,2.31
2023-01-25T08:51:43.610Z,2.46
2023-01-25T08:54:12.499Z,2.49
2023-01-25T08:56:42.508Z,2.53
2023-01-25T08:59:13.254Z,2.48
2023-01-25T09:01:39.783Z,2.46
2023-01-25T09:04:06.220Z,2.41
2023-01-25T09:06:33.146Z,2.54
2023-01-25T09:09:02.250Z,2.47
2023-01-25T09:11:28.904Z,2.44
2023-01-25T09:13:55.416Z,2.51
2023-01-25T09:16:30.988Z,2.55
2023-01-25T09:19:00.390Z,2.50
2023-01-25T09:21:30.239Z,2.49
2023-01-25T09:24:05.865Z,2.58
2023-01-25T09:26:36.370Z,2.61
2023-01-25T09:29:07.681Z,2.60
2023-01-25T09:31:34.453Z,2.65
2023-01-25T09:34:01.173Z,2.63
2023-01-25T09:36:27.694Z,2.47
2023-01-25T09:38:55.382Z,2.55
2023-01-25T09:41:43.454Z,2.55
2023-01-25T09:44:47.905Z,2.55
2023-01-25T09:47:20.557Z,2.51
2023-01-25T09:50:05.300Z,2.48
2023-01-25T09:52:50.806Z,2.45
2023-01-25T09:55:24.335Z,2.46
2023-01-25T09:57:54.025Z,2.50
2023-01-25T10:00:31.874Z,2.56
2023-01-25T10:03:23.333Z,2.67
2023-01-25T10:05:53.522Z,2.59
2023-01-25T10:08:25.930Z,2.61
2023-01-25T10:11:00.204Z,2.56
2023-01-25T10:13:31.750Z,2.61
2023-01-25T10:16:25.631Z,2.69
2023-01-25T10:19:26.907Z,2.68
2023-01-25T10:22:29.903Z,2.64
2023-01-25T10:25:44.317Z,2.53
2023-01-25T10:28:39.642Z,2.53
2023-01-25T10:31:14.773Z,2.50
2023-01-25T10:33:46.284Z,2.45
2023-01-25T10:36:27.224Z,2.64
2023-01-25T10:38:59.196Z,2.57
2023-01-25T10:41:41.343Z,2.67
2023-01-25T10:44:24.592Z,2.71
2023-01-25T10:47:05.150Z,2.62
2023-01-25T10:49:46.258Z,2.65
2023-01-25T10:52:22.222Z,2.63
2023-01-25T10:55:04.571Z,2.62
2023-01-25T10:57:31.236Z,2.62
2023-01-25T11:00:00.660Z,2.52
2023-01-25T11:02:41.646Z,2.57
2023-01-25T11:05:30.774Z,2.54
2023-01-25T11:07:58.706Z,2.69
2023-01-25T11:10:37.322Z,2.55
2023-01-25T11:13:16.109Z,2.57
2023-01-25T11:15:48.583Z,2.50
2023-01-25T11:18:15.063Z,2.44
2023-01-25T11:20:41.529Z,2.51
2023-01-25T11:23:24.010Z,2.65
2023-01-25T11:25:51.392Z,2.67
2023-01-25T11:28:20.102Z,2.56
2023-01-25T11:30:47.582Z,2.56
2023-01-25T11:33:16.670Z,2.43
2023-01-25T11:36:02.960Z,2.53
2023-01-25T11:38:29.707Z,2.49
2023-01-25T11:41:08.845Z,2.52
2023-01-25T11:43:56.955Z,2.50
2023-01-25T11:46:51.259Z,2.50
2023-01-25T11:49:44.325Z,2.54
2023-01-25T11:52:31.818Z,2.52
2023-01-25T11:55:24.409Z,2.55
2023-01-25T11:58:18.919Z,2.59
2023-01-25T12:01:17.603Z,2.58
2023-01-25T12:04:18.310Z,2.56
2023-01-25T12:07:03.919Z,2.50
2023-01-25T12:09:53.685Z,2.63
2023-01-25T12:12:42.872Z,2.63
2023-01-25T12:15:15.559Z,2.49
2023-01-25T12:18:19.695Z,2.56
2023-01-25T12:21:08.274Z,2.55
2023-01-25T12:23:47.398Z,2.45
2023-01-25T12:26:29.790Z,2.57
2023-01-25T12:29:26.276Z,2.45
2023-01-25T12:32:02.920Z,2.42
2023-01-25T12:34:44.113Z,2.42
2023-01-25T12:37:28.405Z,2.45
2023-01-25T12:40:00.518Z,2.43
2023-01-25T12:42:37.638Z,2.41
2023-01-25T12:45:17.925Z,2.45
2023-01-25T12:47:49.271Z,2.47
2023-01-25T12:50:35.011Z,2.64
2023-01-25T12:53:13.590Z,2.44
2023-01-25T12:55:40.733Z,2.49
2023-01-25T12:58:14.111Z,2.52
2023-01-25T13:00:53.673Z,2.55
2023-01-25T13:03:55.764Z,2.55
2023-01-25T13:06:34.453Z,2.53
2023-01-25T13:09:25.251Z,2.62
2023-01-25T13:11:52.022Z,2.54
2023-01-25T13:14:18.730Z,2.46
2023-01-25T13:17:08.472Z,2.50
2023-01-25T13:19:36.436Z,2.44
2023-01-25T13:22:03.773Z,2.36
2023-01-25T13:24:32.461Z,2.46
2023-01-25T13:27:03.899Z,2.53
2023-01-25T13:29:39.647Z,2.51
2023-01-25T13:32:13.478Z,2.53
2023-01-25T13:34:44.115Z,2.58
2023-01-25T13:37:23.002Z,2.35
2023-01-25T13:39:49.455Z,2.40
2023-01-25T13:42:24.254Z,2.33
2023-01-25T13:44:53.971Z,2.26
2023-01-25T13:47:24.082Z,2.34
2023-01-25T13:50:13.003Z,2.42
2023-01-25T13:52:39.768Z,2.39
2023-01-25T13:55:18.194Z,2.51
2023-01-25T13:57:44.718Z,2.36
2023-01-25T14:00:16.785Z,2.41
2023-01-25T14:02:47.204Z,2.49
2023-01-25T14:05:21.354Z,2.30
2023-01-25T14:07:50.963Z,2.32
2023-01-25T14:10:24.243Z,2.43
2023-01-25T14:12:53.891Z,2.44
2023-01-25T14:15:34.417Z,2.24
2023-01-25T14:18:10.523Z,2.22
2023-01-25T14:20:37.176Z,2.18
2023-01-25T14:23:05.715Z,2.20
2023-01-25T14:25:33.517Z,2.15
2023-01-25T14:28:02.421Z,2.24
2023-01-25T14:30:34.901Z,2.18
2023-01-25T14:33:03.977Z,2.17
2023-01-25T14:35:42.307Z,2.14
2023-01-25T14:38:35.431Z,2.21
2023-01-25T14:41:14.432Z,2.11
2023-01-25T14:43:53.588Z,2.15
2023-01-25T14:46:21.468Z,2.19
2023-01-25T14:48:48.075Z,2.13
2023-01-25T14:51:26.062Z,2.11
2023-01-25T14:54:01.444Z,2.07
2023-01-25T14:56:30.568Z,2.22
2023-01-25T14:59:00.572Z,2.15
2023-01-25T15:01:39.813Z,2.17
2023-01-25T15:04:12.483Z,2.17
2023-01-25T15:06:50.816Z,2.20
2023-01-25T15:09:30.950Z,2.14
2023-01-25T15:12:27.953Z,2.10
2023-01-25T15:14:57.481Z,2.03
2023-01-25T15:17:56.681Z,1.99
2023-01-25T15:20:28.119Z,2.01
2023-01-25T15:22:57.650Z,2.03
2023-01-25T15:25:24.624Z,2.01
2023-01-25T15:27:51.633Z,1.99
2023-01-25T15:30:18.885Z,2.15
2023-01-25T15:32:46.021Z,2.18
2023-01-25T15:35:21.682Z,2.25
2023-01-25T15:37:49.538Z,2.15
2023-01-25T15:40:17.110Z,2.17
2023-01-25T15:42:45.947Z,2.19
2023-01-25T15:45:12.461Z,2.04
2023-01-25T15:47:39.571Z,2.16
2023-01-25T15:50:07.071Z,2.04
2023-01-25T15:52:33.599Z,2.16
2023-01-25T15:55:02.194Z,1.99
2023-01-25T15:57:32.963Z,1.98
2023-01-25T16:00:06.617Z,2.14
2023-01-25T16:02:33.183Z,1.99
2023-01-25T16:05:02.142Z,2.11
2023-01-25T16:07:31.980Z,2.04
2023-01-25T16:09:58.482Z,2.05
2023-01-25T16:12:25.621Z,2.10
2023-01-25T16:14:52.080Z,2.16
2023-01-25T16:17:20.374Z,2.11
2023-01-25T16:19:47.865Z,2.09
2023-01-25T16:22:15.537Z,1.98
2023-01-25T16:24:43.512Z,1.95
2023-01-25T16:27:25.580Z,1.92
2023-01-25T16:29:53.033Z,1.94
2023-01-25T16:32:19.650Z,1.90
2023-01-25T16:34:46.249Z,1.93
2023-01-25T16:37:17.134Z,1.80
2023-01-25T16:39:43.622Z,1.78
2023-01-25T16:42:10.896Z,1.74
2023-01-25T16:44:38.046Z,1.64
2023-01-25T16:47:05.310Z,1.82
2023-01-25T16:49:33.420Z,1.76
2023-01-25T16:52:02.613Z,1.81
2023-01-25T16:54:29.104Z,1.82
2023-01-25T16:56:55.611Z,1.90
2023-01-25T16:59:23.147Z,1.88
2023-01-25T17:01:49.925Z,1.91
2023-01-25T17:04:16.983Z,1.81
2023-01-25T17:06:47.082Z,1.74
2023-01-25T17:09:24.607Z,1.79
2023-01-25T17:11:52.414Z,1.79
2023-01-25T17:14:19.530Z,1.82
2023-01-25T17:16:48.235Z,1.80
2023-01-25T17:19:16.227Z,1.70
2023-01-25T17:21:43.197Z,1.87
2023-01-25T17:24:13.387Z,1.86
2023-01-25T17:26:40.761Z,1.90
2023-01-25T17:29:10.096Z,1.85
2023-01-25T17:31:37.378Z,1.82
2023-01-25T17:34:07.123Z,2.03
2023-01-25T17:36:34.245Z,1.94
2023-01-25T17:39:08.206Z,1.78
2023-01-25T17:41:34.874Z,1.83
2023-01-25T17:44:01.482Z,1.80
2023-01-25T17:46:32.904Z,1.80
2023-01-25T17:49:01.087Z,1.93
2023-01-25T17:51:28.228Z,1.82
2023-01-25T17:53:54.990Z,1.88
2023-01-25T17:56:21.525Z,1.85
2023-01-25T17:58:48.077Z,1.77
2023-01-25T18:01:23.908Z,1.73
2023-01-25T18:03:52.307Z,1.79
2023-01-25T18:06:21.729Z,1.79
2023-01-25T18:08:50.403Z,1.80
2023-01-25T18:11:23.161Z,1.70
2023-01-25T18:13:52.001Z,1.67
2023-01-25T18:16:23.507Z,1.70
2023-01-25T18:18:52.463Z,1.76
2023-01-25T18:21:25.539Z,1.83
2023-01-25T18:23:57.600Z,1.85
2023-01-25T18:26:27.070Z,1.75
2023-01-25T18:28:59.578Z,1.79
2023-01-25T18:31:26.534Z,1.75
2023-01-25T18:33:53.165Z,1.74
2023-01-25T18:36:20.431Z,1.83
2023-01-25T18:38:46.906Z,1.82
2023-01-25T18:41:13.443Z,1.88
2023-01-25T18:43:39.974Z,1.82
2023-01-25T18:46:06.659Z,1.72
2023-01-25T18:48:33.501Z,1.69
2023-01-25T18:51:11.235Z,1.69
2023-01-25T18:53:41.471Z,1.71
2023-01-25T18:56:16.682Z,1.77
2023-01-25T18:58:43.974Z,1.73
2023-01-25T19:01:19.856Z,1.69
2023-01-25T19:03:47.806Z,1.65
2023-01-25T19:06:15.023Z,1.72
2023-01-25T19:08:44.136Z,1.74
2023-01-25T19:11:13.935Z,1.66
2023-01-25T19:13:41.648Z,1.84
2023-01-25T19:16:13.921Z,1.73
2023-01-25T19:18:52.061Z,1.76
2023-01-25T19:21:21.556Z,1.71
2023-01-25T19:23:48.485Z,1.76
2023-01-25T19:26:17.718Z,1.75
2023-01-25T19:28:45.290Z,1.73
2023-01-25T19:31:13.792Z,1.76
2023-01-25T19:33:40.869Z,1.79
2023-01-25T19:36:12.939Z,1.75
2023-01-25T19:38:41.925Z,1.67
2023-01-25T19:41:13.727Z,1.71
2023-01-25T19:43:43.778Z,1.79
2023-01-25T19:46:16.219Z,1.77
2023-01-25T19:48:43.994Z,1.66
2023-01-25T19:51:14.764Z,1.65
2023-01-25T19:53:46.397Z,1.66
2023-01-25T19:56:17.711Z,1.70
2023-01-25T19:58:45.918Z,1.74
2023-01-25T20:01:19.205Z,1.72
2023-01-25T20:03:46.042Z,1.79
2023-01-25T20:06:14.178Z,1.75
2023-01-25T20:08:42.929Z,1.84
2023-01-25T20:11:21.595Z,1.91
2023-01-25T20:13:50.436Z,1.77
2023-01-25T20:16:17.724Z,1.64
2023-01-25T20:18:48.452Z,1.80
2023-01-25T20:21:17.746Z,1.69
2023-01-25T20:23:46.247Z,1.84
2023-01-25T20:26:18.570Z,1.72
2023-01-25T20:28:47.738Z,1.75
2023-01-25T20:31:24.781Z,1.69
2023-01-25T20:33:55.486Z,1.66
2023-01-25T20:36:22.639Z,1.64
2023-01-25T20:38:49.128Z,1.65
2023-01-25T20:41:17.362Z,1.70
2023-01-25T20:44:02.049Z,1.73
2023-01-25T20:46:33.955Z,1.77
2023-01-25T20:49:02.167Z,1.67
2023-01-25T20:51:29.513Z,1.91
2023-01-25T20:53:56.856Z,1.87
2023-01-25T20:56:23.947Z,1.64
2023-01-25T20:58:51.371Z,1.74
2023-01-25T21:01:22.418Z,1.70
2023-01-25T21:03:49.827Z,1.78
2023-01-25T21:06:17.373Z,1.63
2023-01-25T21:08:46.320Z,1.60
2023-01-25T21:11:15.804Z,1.60
2023-01-25T21:13:42.389Z,1.59
2023-01-25T21:16:21.569Z,1.53
2023-01-25T21:18:57.464Z,1.60
2023-01-25T21:21:29.219Z,1.58
2023-01-25T21:24:02.670Z,1.74
2023-01-25T21:26:32.115Z,1.67
2023-01-25T21:29:00.217Z,1.77
2023-01-25T21:31:29.069Z,1.76
2023-01-25T21:33:57.934Z,1.64
2023-01-25T21:36:27.232Z,1.66
2023-01-25T21:38:55.118Z,1.65
2023-01-25T21:41:25.731Z,1.70
2023-01-25T21:44:12.913Z,1.76
2023-01-25T21:46:40.089Z,1.71
2023-01-25T21:49:27.323Z,1.71
2023-01-25T21:51:59.196Z,1.70
2023-01-25T21:54:27.219Z,1.75
2023-01-25T21:56:56.543Z,1.71
2023-01-25T21:59:23.882Z,1.77
2023-01-25T22:01:51.575Z,1.72
2023-01-25T22:04:19.798Z,1.75
2023-01-25T22:06:49.085Z,1.69
2023-01-25T22:09:15.720Z,1.72
2023-01-25T22:11:42.435Z,1.58
2023-01-25T22:14:09.023Z,1.87
2023-01-25T22:16:35.491Z,1.67
2023-01-25T22:19:01.976Z,1.60
2023-01-25T22:21:32.069Z,1.55
2023-01-25T22:24:04.322Z,1.50
2023-01-25T22:26:42.888Z,1.52
2023-01-25T22:29:09.439Z,1.56
2023-01-25T22:31:36.066Z,1.49
2023-01-25T22:34:02.757Z,1.54
2023-01-25T22:36:33.041Z,1.50
2023-01-25T22:39:02.223Z,1.38
2023-01-25T22:41:31.282Z,1.47
2023-01-25T22:44:01.149Z,1.50
2023-01-25T22:46:29.225Z,1.73
2023-01-25T22:48:57.337Z,1.77
2023-01-25T22:51:29.371Z,1.69
2023-01-25T22:53:57.655Z,1.62
2023-01-25T22:56:27.404Z,1.55
2023-01-25T22:58:54.533Z,1.55
2023-01-25T23:01:23.872Z,1.55
2023-01-25T23:03:51.322Z,1.54
2023-01-25T23:06:28.742Z,1.48
2023-01-25T23:09:03.230Z,1.55
2023-01-25T23:11:35.287Z,1.65
2023-01-25T23:14:23.143Z,1.66
2023-01-25T23:16:49.746Z,1.71
2023-01-25T23:19:16.360Z,1.70
2023-01-25T23:21:42.872Z,1.63
2023-01-25T23:24:10.437Z,1.67
2023-01-25T23:26:38.069Z,1.61
2023-01-25T23:29:10.898Z,1.64
2023-01-25T23:31:37.967Z,1.74
2023-01-25T23:34:11.169Z,1.80
2023-01-25T23:36:38.828Z,1.76
2023-01-25T23:39:07.588Z,1.72
2023-01-25T23:41:34.210Z,1.72
2023-01-25T23:44:02.000Z,1.61
2023-01-25T23:46:30.190Z,1.57
2023-01-25T23:48:56.803Z,1.52
2023-01-25T23:51:23.319Z,1.60
2023-01-25T23:53:49.796Z,1.49
2023-01-25T23:56:18.515Z,1.52
2023-01-25T23:58:47.997Z,1.69
